Aviation Digital Data Service (ADDS)

Output produced by METARs form (1124 UTC 21 April 2018)
found at http://aviationweather.gov/adds/metars/
 
KROC 211120Z 2112/2212 27005KT P6SM SKC 
     FM211500 31007KT P6SM FEW250 
     FM220300 27006KT P6SM SKC